createdAt,value
2018-11-26T00:00:15.490Z,96.80
2018-11-26T00:02:43.711Z,96.80
2018-11-26T00:05:11.956Z,96.80
2018-11-26T00:07:40.211Z,96.70
2018-11-26T00:10:19.680Z,96.80
2018-11-26T00:12:47.893Z,96.80
2018-11-26T00:15:16.087Z,96.80
2018-11-26T00:17:44.299Z,96.90
2018-11-26T00:20:12.487Z,96.90
2018-11-26T00:22:40.710Z,96.90
2018-11-26T00:25:08.966Z,97.00
2018-11-26T00:27:37.223Z,96.90
2018-11-26T00:30:06.610Z,96.90
2018-11-26T00:32:34.824Z,96.90
2018-11-26T00:35:03.019Z,97.00
2018-11-26T00:37:31.202Z,96.90
2018-11-26T00:39:59.410Z,96.80
2018-11-26T00:42:27.659Z,96.70
2018-11-26T00:44:55.871Z,96.70
2018-11-26T00:47:24.126Z,96.70
2018-11-26T00:49:52.327Z,96.60
2018-11-26T00:52:20.535Z,96.60
2018-11-26T00:54:48.778Z,96.60
2018-11-26T00:57:16.956Z,96.70
2018-11-26T00:59:45.221Z,96.70
2018-11-26T01:02:13.433Z,96.70
2018-11-26T01:04:41.703Z,96.70
2018-11-26T01:07:09.957Z,96.80
2018-11-26T01:09:38.214Z,96.70
2018-11-26T01:12:06.423Z,96.70
2018-11-26T01:14:34.705Z,96.70
2018-11-26T01:17:02.915Z,96.70
2018-11-26T01:19:31.137Z,96.80
2018-11-26T01:21:59.367Z,96.80
2018-11-26T01:24:27.577Z,96.80
2018-11-26T01:26:55.775Z,96.80
2018-11-26T01:29:24.010Z,97.00
2018-11-26T01:31:52.267Z,96.80
2018-11-26T01:34:20.483Z,96.80
2018-11-26T01:36:48.668Z,96.80
2018-11-26T01:39:17.571Z,96.80
2018-11-26T01:41:45.784Z,96.70
2018-11-26T01:44:13.996Z,96.70
2018-11-26T01:46:42.243Z,96.70
2018-11-26T01:49:10.460Z,96.70
2018-11-26T01:51:38.702Z,97.00
2018-11-26T01:54:07.284Z,96.60
2018-11-26T01:56:35.495Z,96.60
2018-11-26T01:59:03.734Z,96.60
2018-11-26T02:01:31.924Z,96.50
2018-11-26T02:04:00.133Z,96.60
2018-11-26T02:06:29.072Z,96.60
2018-11-26T02:08:57.279Z,96.60
2018-11-26T02:11:25.521Z,96.60
2018-11-26T02:13:53.741Z,96.70
2018-11-26T02:16:21.974Z,96.70
2018-11-26T02:18:50.155Z,96.70
2018-11-26T02:21:18.358Z,96.80
2018-11-26T02:23:46.571Z,96.80
2018-11-26T02:26:14.767Z,96.80
2018-11-26T02:28:42.961Z,96.90
2018-11-26T02:31:11.139Z,96.90
2018-11-26T02:33:39.343Z,96.90
2018-11-26T02:36:07.534Z,96.90
2018-11-26T02:38:35.728Z,96.90
2018-11-26T02:41:03.935Z,96.80
2018-11-26T02:43:32.235Z,96.80
2018-11-26T02:46:00.414Z,96.70
2018-11-26T02:48:28.609Z,96.70
2018-11-26T02:50:56.795Z,96.70
2018-11-26T02:53:24.971Z,96.80
2018-11-26T02:55:53.471Z,96.90
2018-11-26T02:58:21.651Z,96.90
2018-11-26T03:00:49.840Z,96.90
2018-11-26T03:03:18.019Z,96.90
2018-11-26T03:05:46.221Z,96.90
2018-11-26T03:08:14.458Z,96.90
2018-11-26T03:10:42.687Z,97.00
2018-11-26T03:13:10.866Z,97.00
2018-11-26T03:15:39.100Z,97.10
2018-11-26T03:18:07.291Z,97.10
2018-11-26T03:20:35.487Z,97.00
2018-11-26T03:23:03.655Z,97.00
2018-11-26T03:25:31.856Z,97.00
2018-11-26T03:28:00.045Z,97.00
2018-11-26T03:30:28.254Z,97.00
2018-11-26T03:32:56.448Z,97.00
2018-11-26T03:35:24.649Z,97.00
2018-11-26T03:37:52.847Z,97.00
2018-11-26T03:40:21.056Z,96.90
2018-11-26T03:42:49.251Z,96.90
2018-11-26T03:45:18.275Z,97.00
2018-11-26T03:47:46.487Z,97.00
2018-11-26T03:50:14.792Z,97.10
2018-11-26T03:52:43.911Z,97.20
2018-11-26T03:55:12.437Z,97.20
2018-11-26T03:57:40.656Z,97.30
2018-11-26T04:00:10.492Z,97.20
2018-11-26T04:02:38.688Z,97.20
2018-11-26T04:05:07.731Z,97.20
2018-11-26T04:07:35.938Z,97.20
2018-11-26T04:10:05.005Z,97.20
2018-11-26T04:12:33.206Z,97.20
2018-11-26T04:15:01.447Z,97.20
2018-11-26T04:17:29.651Z,97.20
2018-11-26T04:19:57.865Z,97.20
2018-11-26T04:22:26.055Z,97.20
2018-11-26T04:24:54.300Z,97.20
2018-11-26T04:27:22.503Z,97.20
2018-11-26T04:29:50.708Z,97.20
2018-11-26T04:32:18.906Z,97.20
2018-11-26T04:34:47.152Z,97.20
2018-11-26T04:37:15.335Z,97.10
2018-11-26T04:39:43.533Z,97.10
2018-11-26T04:42:11.744Z,97.10
2018-11-26T04:44:39.932Z,97.00
2018-11-26T04:47:08.128Z,97.10
2018-11-26T04:49:36.324Z,97.10
2018-11-26T04:52:04.687Z,97.10
2018-11-26T04:54:32.882Z,97.10
2018-11-26T04:57:01.089Z,97.10
2018-11-26T04:59:29.302Z,97.10
2018-11-26T05:01:57.499Z,97.10
2018-11-26T05:04:25.740Z,97.10
2018-11-26T05:06:53.942Z,97.10
2018-11-26T05:09:22.127Z,97.00
2018-11-26T05:11:50.347Z,97.10
2018-11-26T05:14:18.541Z,97.10
2018-11-26T05:16:46.744Z,97.20
2018-11-26T05:19:14.943Z,97.20
2018-11-26T05:21:43.165Z,97.20
2018-11-26T05:24:11.375Z,97.20
2018-11-26T05:26:39.567Z,97.10
2018-11-26T05:29:07.775Z,97.10
2018-11-26T05:31:35.980Z,97.10
2018-11-26T05:34:04.184Z,97.10
2018-11-26T05:36:32.371Z,97.10
2018-11-26T05:39:00.572Z,97.10
2018-11-26T05:41:28.772Z,97.00
2018-11-26T05:43:56.983Z,96.90
2018-11-26T05:46:25.188Z,97.20
2018-11-26T05:48:53.387Z,97.00
2018-11-26T05:51:21.589Z,97.10
2018-11-26T05:53:49.799Z,97.10
2018-11-26T05:56:18.003Z,97.10
2018-11-26T05:58:46.207Z,97.20
2018-11-26T06:01:14.422Z,97.20
2018-11-26T06:03:42.636Z,97.20
2018-11-26T06:06:10.827Z,97.20
2018-11-26T06:08:39.031Z,97.30
2018-11-26T06:11:07.223Z,97.30
2018-11-26T06:13:35.422Z,97.30
2018-11-26T06:16:03.612Z,97.30
2018-11-26T06:18:31.823Z,97.30
2018-11-26T06:21:00.030Z,97.30
2018-11-26T06:23:28.233Z,97.20
2018-11-26T06:25:56.424Z,97.10
2018-11-26T06:28:24.642Z,97.00
2018-11-26T06:30:52.842Z,97.00
2018-11-26T06:33:21.040Z,97.20
2018-11-26T06:35:49.232Z,97.00
2018-11-26T06:38:17.427Z,97.00
2018-11-26T06:40:45.624Z,97.10
2018-11-26T06:43:13.887Z,97.10
2018-11-26T06:45:42.114Z,97.00
2018-11-26T06:48:10.331Z,97.00
2018-11-26T06:50:38.534Z,97.00
2018-11-26T06:53:07.119Z,97.00
2018-11-26T06:55:35.342Z,97.00
2018-11-26T06:58:03.554Z,97.00
2018-11-26T07:00:31.811Z,96.90
2018-11-26T07:03:00.015Z,96.90
2018-11-26T07:05:28.216Z,96.80
2018-11-26T07:07:56.421Z,96.60
2018-11-26T07:10:24.618Z,96.50
2018-11-26T07:12:52.791Z,96.40
2018-11-26T07:15:21.971Z,96.50
2018-11-26T07:17:50.927Z,96.50
2018-11-26T07:20:20.057Z,96.40
2018-11-26T07:22:48.251Z,96.50
2018-11-26T07:25:18.763Z,96.30
2018-11-26T07:27:48.371Z,96.30
2018-11-26T07:30:19.633Z,96.20
2018-11-26T07:32:47.827Z,96.20
2018-11-26T07:35:16.327Z,96.30
2018-11-26T07:37:44.523Z,96.40
2018-11-26T07:40:16.701Z,96.30
2018-11-26T07:42:49.564Z,96.40
2018-11-26T07:45:17.745Z,96.30
2018-11-26T07:47:45.952Z,96.30
2018-11-26T07:50:15.224Z,96.30
2018-11-26T07:52:43.399Z,96.20
2018-11-26T07:55:14.596Z,96.20
2018-11-26T07:57:42.816Z,96.20
2018-11-26T08:00:13.148Z,96.20
2018-11-26T08:02:41.517Z,96.20
2018-11-26T08:05:11.121Z,95.80
2018-11-26T08:07:39.468Z,95.30
2018-11-26T08:10:10.888Z,94.70
2018-11-26T08:12:39.115Z,94.20
2018-11-26T08:15:10.321Z,94.00
2018-11-26T08:17:38.669Z,94.00
2018-11-26T08:20:07.994Z,93.80
2018-11-26T08:22:36.247Z,93.20
2018-11-26T08:25:06.178Z,92.90
2018-11-26T08:27:34.388Z,92.60
2018-11-26T08:30:02.639Z,92.80
2018-11-26T08:32:34.194Z,92.50
2018-11-26T08:34:59.089Z,92.60
2018-11-26T08:37:33.339Z,92.60
2018-11-26T08:40:07.055Z,92.40
2018-11-26T08:42:40.996Z,92.30
2018-11-26T08:45:16.573Z,92.10
2018-11-26T08:47:49.067Z,92.00
2018-11-26T08:50:17.290Z,91.90
2018-11-26T08:52:45.520Z,91.80
2018-11-26T08:55:13.724Z,91.60
2018-11-26T08:57:41.956Z,91.70
2018-11-26T09:00:11.145Z,92.00
2018-11-26T09:02:48.119Z,91.90
2018-11-26T09:05:24.162Z,91.80
2018-11-26T09:07:50.973Z,91.60
2018-11-26T09:10:19.236Z,91.50
2018-11-26T09:12:47.452Z,91.20
2018-11-26T09:15:15.659Z,91.30
2018-11-26T09:17:43.865Z,91.40
2018-11-26T09:20:12.099Z,91.30
2018-11-26T09:22:40.310Z,91.20
2018-11-26T09:25:10.764Z,91.30
2018-11-26T09:27:39.033Z,91.40
2018-11-26T09:30:11.016Z,91.40
2018-11-26T09:32:39.437Z,91.30
2018-11-26T09:35:09.496Z,91.70
2018-11-26T09:37:37.760Z,91.40
2018-11-26T09:40:07.515Z,91.30
2018-11-26T09:42:35.736Z,91.50
2018-11-26T09:45:04.385Z,91.40
2018-11-26T09:47:32.629Z,91.40
2018-11-26T09:50:00.864Z,91.50
2018-11-26T09:52:29.098Z,91.00
2018-11-26T09:54:57.311Z,91.00
2018-11-26T09:57:25.524Z,91.10
2018-11-26T09:59:53.743Z,91.30
2018-11-26T10:02:21.990Z,91.30
2018-11-26T10:04:50.210Z,91.60
2018-11-26T10:07:18.470Z,91.40
2018-11-26T10:09:46.674Z,91.30
2018-11-26T10:12:14.917Z,91.60
2018-11-26T10:14:43.141Z,91.30
2018-11-26T10:17:11.352Z,91.40
2018-11-26T10:19:39.651Z,91.10
2018-11-26T10:22:07.876Z,91.10
2018-11-26T10:24:36.073Z,91.20
2018-11-26T10:27:04.388Z,90.90
2018-11-26T10:29:32.595Z,90.60
2018-11-26T10:32:00.800Z,90.80
2018-11-26T10:34:29.012Z,90.70
2018-11-26T10:36:57.253Z,90.80
2018-11-26T10:39:25.482Z,90.60
2018-11-26T10:41:53.681Z,90.60
2018-11-26T10:44:21.871Z,90.60
2018-11-26T10:46:50.089Z,90.70
2018-11-26T10:49:18.299Z,90.50
2018-11-26T10:51:46.530Z,90.30
2018-11-26T10:54:14.728Z,90.40
2018-11-26T10:56:42.944Z,90.20
2018-11-26T10:59:11.156Z,90.00
2018-11-26T11:01:43.888Z,90.00
2018-11-26T11:04:12.100Z,89.60
2018-11-26T11:06:40.293Z,88.90
2018-11-26T11:09:09.003Z,88.60
2018-11-26T11:11:37.220Z,88.40
2018-11-26T11:14:05.512Z,87.90
2018-11-26T11:16:33.711Z,87.90
2018-11-26T11:19:01.907Z,87.70
2018-11-26T11:21:30.101Z,88.00
2018-11-26T11:23:58.283Z,87.60
2018-11-26T11:26:28.210Z,87.60
2018-11-26T11:28:55.169Z,87.20
2018-11-26T11:31:23.381Z,86.60
2018-11-26T11:33:51.575Z,85.80
2018-11-26T11:36:19.770Z,86.30
2018-11-26T11:38:48.045Z,86.40
2018-11-26T11:41:16.265Z,86.00
2018-11-26T11:43:44.543Z,86.80
2018-11-26T11:46:12.746Z,86.60
2018-11-26T11:48:40.990Z,87.10
2018-11-26T11:51:09.218Z,86.20
2018-11-26T11:53:37.467Z,85.90
2018-11-26T11:56:06.240Z,86.60
2018-11-26T11:58:34.486Z,86.30
2018-11-26T12:01:02.844Z,85.50
2018-11-26T12:03:31.100Z,85.80
2018-11-26T12:05:59.359Z,85.80
2018-11-26T12:08:27.635Z,86.30
2018-11-26T12:10:55.961Z,86.70
2018-11-26T12:13:27.728Z,87.20
2018-11-26T12:15:56.080Z,88.00
2018-11-26T12:18:24.413Z,88.70
2018-11-26T12:20:53.311Z,88.90
2018-11-26T12:23:21.619Z,88.70
2018-11-26T12:25:50.007Z,88.50
2018-11-26T12:28:18.284Z,88.50
2018-11-26T12:30:46.937Z,87.70
2018-11-26T12:33:15.176Z,88.00
2018-11-26T12:35:43.472Z,88.80
2018-11-26T12:38:11.700Z,88.60
2018-11-26T12:40:39.938Z,88.40
2018-11-26T12:43:08.206Z,88.60
2018-11-26T12:45:36.458Z,88.30
2018-11-26T12:48:04.899Z,88.10
2018-11-26T12:50:33.428Z,87.50
2018-11-26T12:53:01.765Z,88.40
2018-11-26T12:55:30.130Z,88.60
2018-11-26T12:57:59.020Z,88.60
2018-11-26T13:00:28.469Z,87.60
2018-11-26T13:03:01.010Z,88.10
2018-11-26T13:05:29.253Z,88.10
2018-11-26T13:07:57.526Z,88.10
2018-11-26T13:10:25.772Z,87.20
2018-11-26T13:12:56.278Z,87.30
2018-11-26T13:15:25.771Z,87.60
2018-11-26T13:17:54.010Z,90.40
2018-11-26T13:20:23.952Z,90.60
2018-11-26T13:22:52.719Z,90.40
2018-11-26T13:25:22.031Z,90.10
2018-11-26T13:27:52.447Z,89.90
2018-11-26T13:30:23.706Z,89.70
2018-11-26T13:32:53.225Z,89.10
2018-11-26T13:35:21.474Z,89.20
2018-11-26T13:37:49.748Z,89.00
2018-11-26T13:40:18.558Z,89.40
2018-11-26T13:42:46.915Z,89.50
2018-11-26T13:45:16.626Z,90.30
2018-11-26T13:47:44.879Z,90.90
2018-11-26T13:50:18.406Z,91.30
2018-11-26T13:52:46.736Z,91.80
2018-11-26T13:55:14.968Z,92.10
2018-11-26T13:57:43.211Z,92.10
2018-11-26T14:00:13.498Z,92.20
2018-11-26T14:02:41.725Z,92.50
2018-11-26T14:05:11.219Z,92.80
2018-11-26T14:07:39.450Z,92.70
2018-11-26T14:10:11.189Z,92.80
2018-11-26T14:12:39.605Z,93.00
2018-11-26T14:15:10.723Z,93.00
2018-11-26T14:17:38.950Z,93.00
2018-11-26T14:20:11.606Z,93.10
2018-11-26T14:22:39.840Z,93.20
2018-11-26T14:25:12.400Z,93.40
2018-11-26T14:27:41.411Z,93.50
2018-11-26T14:30:16.029Z,93.60
2018-11-26T14:32:44.266Z,93.40
2018-11-26T14:35:12.520Z,93.40
2018-11-26T14:37:43.068Z,93.40
2018-11-26T14:40:17.851Z,93.60
2018-11-26T14:42:46.095Z,93.60
2018-11-26T14:45:14.634Z,93.60
2018-11-26T14:47:43.628Z,93.80
2018-11-26T14:50:13.030Z,94.00
2018-11-26T14:52:42.281Z,94.00
2018-11-26T14:55:13.011Z,94.00
2018-11-26T14:57:41.333Z,94.10
2018-11-26T15:00:12.678Z,94.50
2018-11-26T15:02:40.937Z,94.40
2018-11-26T15:05:09.387Z,94.60
2018-11-26T15:07:37.676Z,94.80
2018-11-26T15:10:08.958Z,94.90
2018-11-26T15:12:37.320Z,94.90
2018-11-26T15:15:07.910Z,94.90
2018-11-26T15:17:36.186Z,94.90
2018-11-26T15:20:07.290Z,94.90
2018-11-26T15:22:35.549Z,94.80
2018-11-26T15:25:03.894Z,94.90
2018-11-26T15:27:32.322Z,94.80
2018-11-26T15:30:00.607Z,94.80
2018-11-26T15:32:28.890Z,94.70
2018-11-26T15:34:57.243Z,94.70
2018-11-26T15:37:25.599Z,94.80
2018-11-26T15:39:53.914Z,94.80
2018-11-26T15:42:22.190Z,94.80
2018-11-26T15:44:50.545Z,94.80
2018-11-26T15:47:18.812Z,94.80
2018-11-26T15:49:47.089Z,94.70
2018-11-26T15:52:15.834Z,94.70
2018-11-26T15:54:44.515Z,94.70
2018-11-26T15:57:12.893Z,94.70
2018-11-26T15:59:41.139Z,94.70
2018-11-26T16:02:09.374Z,94.70
2018-11-26T16:04:37.611Z,94.60
2018-11-26T16:07:06.433Z,94.60
2018-11-26T16:09:34.903Z,94.50
2018-11-26T16:12:03.178Z,94.50
2018-11-26T16:14:31.450Z,94.60
2018-11-26T16:16:59.684Z,94.80
2018-11-26T16:19:27.937Z,94.80
2018-11-26T16:21:56.166Z,94.80
2018-11-26T16:24:24.426Z,94.70
2018-11-26T16:26:52.672Z,94.80
2018-11-26T16:29:20.898Z,94.90
2018-11-26T16:31:49.150Z,95.00
2018-11-26T16:34:17.395Z,94.90
2018-11-26T16:36:46.026Z,94.90
2018-11-26T16:39:14.383Z,94.80
2018-11-26T16:41:42.603Z,94.70
2018-11-26T16:44:15.034Z,94.80
2018-11-26T16:46:43.283Z,94.90
2018-11-26T16:49:11.648Z,95.10
2018-11-26T16:51:39.994Z,95.20
2018-11-26T16:54:08.199Z,95.10
2018-11-26T16:56:36.501Z,95.20
2018-11-26T16:59:05.116Z,95.20
2018-11-26T17:01:33.439Z,95.20
2018-11-26T17:04:01.666Z,95.20
2018-11-26T17:06:29.907Z,95.20
2018-11-26T17:08:58.281Z,95.40
2018-11-26T17:11:26.504Z,95.50
2018-11-26T17:13:54.793Z,95.60
2018-11-26T17:16:23.016Z,95.60
2018-11-26T17:18:51.310Z,95.60
2018-11-26T17:21:19.567Z,95.50
2018-11-26T17:23:47.847Z,95.60
2018-11-26T17:26:19.145Z,95.50
2018-11-26T17:28:47.379Z,95.40
2018-11-26T17:31:15.609Z,95.40
2018-11-26T17:33:43.811Z,95.40
2018-11-26T17:36:12.061Z,95.30
2018-11-26T17:38:40.310Z,95.40
2018-11-26T17:41:08.607Z,95.40
2018-11-26T17:43:36.828Z,95.40
2018-11-26T17:46:05.943Z,95.30
2018-11-26T17:48:34.174Z,95.30
2018-11-26T17:51:02.398Z,95.30
2018-11-26T17:53:30.672Z,95.40
2018-11-26T17:55:58.983Z,95.50
2018-11-26T17:58:28.725Z,95.50
2018-11-26T18:01:08.060Z,95.60
2018-11-26T18:03:37.632Z,95.50
2018-11-26T18:06:06.058Z,95.40
2018-11-26T18:08:34.388Z,95.40
2018-11-26T18:11:03.182Z,95.50
2018-11-26T18:13:31.588Z,95.50
2018-11-26T18:15:59.906Z,95.60
2018-11-26T18:18:28.417Z,95.60
2018-11-26T18:20:58.929Z,95.60
2018-11-26T18:23:27.232Z,95.70
2018-11-26T18:25:55.619Z,95.70
2018-11-26T18:28:24.137Z,95.70
2018-11-26T18:30:52.986Z,95.70
2018-11-26T18:33:21.257Z,95.70
2018-11-26T18:35:49.754Z,95.70
2018-11-26T18:38:18.170Z,95.70
2018-11-26T18:40:48.097Z,95.60
2018-11-26T18:43:16.366Z,95.60
2018-11-26T18:45:44.656Z,95.40
2018-11-26T18:48:14.060Z,95.40
2018-11-26T18:50:42.303Z,95.40
2018-11-26T18:53:10.567Z,95.40
2018-11-26T18:55:40.408Z,95.50
2018-11-26T18:58:09.938Z,95.60
2018-11-26T19:00:39.936Z,95.80
2018-11-26T19:03:08.296Z,95.70
2018-11-26T19:05:36.695Z,95.70
2018-11-26T19:08:06.043Z,95.70
2018-11-26T19:10:36.233Z,95.80
2018-11-26T19:13:11.057Z,95.70
2018-11-26T19:15:40.743Z,95.70
2018-11-26T19:18:11.551Z,95.70
2018-11-26T19:20:40.186Z,95.60
2018-11-26T19:23:08.925Z,95.80
2018-11-26T19:25:37.543Z,95.70
2018-11-26T19:28:05.872Z,95.70
2018-11-26T19:30:34.156Z,95.70
2018-11-26T19:33:02.572Z,95.60
2018-11-26T19:35:31.188Z,95.50
2018-11-26T19:37:59.493Z,95.40
2018-11-26T19:40:27.818Z,95.50
2018-11-26T19:42:56.114Z,95.60
2018-11-26T19:45:24.803Z,95.60
2018-11-26T19:47:53.498Z,95.80
2018-11-26T19:50:22.136Z,95.80
2018-11-26T19:52:52.038Z,96.00
2018-11-26T19:55:23.595Z,96.10
2018-11-26T19:57:55.537Z,96.50
2018-11-26T20:00:26.843Z,96.40
2018-11-26T20:02:56.743Z,96.40
2018-11-26T20:05:30.259Z,96.30
2018-11-26T20:07:59.687Z,96.30
2018-11-26T20:10:30.111Z,96.30
2018-11-26T20:12:58.960Z,96.20
2018-11-26T20:15:27.263Z,96.20
2018-11-26T20:17:59.037Z,96.30
2018-11-26T20:20:24.720Z,96.40
2018-11-26T20:22:53.825Z,96.40
2018-11-26T20:25:22.967Z,96.40
2018-11-26T20:27:52.284Z,96.30
2018-11-26T20:30:20.934Z,96.10
2018-11-26T20:32:50.871Z,96.10
2018-11-26T20:35:21.350Z,96.50
2018-11-26T20:37:50.455Z,96.40
2018-11-26T20:40:22.144Z,96.30
2018-11-26T20:42:56.758Z,96.30
2018-11-26T20:45:26.010Z,96.40
2018-11-26T20:50:53.064Z,96.30
2018-11-26T20:53:25.050Z,96.20
2018-11-26T20:55:55.322Z,96.30
2018-11-26T20:58:26.628Z,96.40
2018-11-26T21:00:55.656Z,96.30
2018-11-26T21:03:25.311Z,96.30
2018-11-26T21:05:54.357Z,96.40
2018-11-26T21:08:23.867Z,96.40
2018-11-26T21:10:52.254Z,96.50
2018-11-26T21:13:20.530Z,96.40
2018-11-26T21:15:48.757Z,96.50
2018-11-26T21:18:17.033Z,96.60
2018-11-26T21:20:46.729Z,96.60
2018-11-26T21:23:31.413Z,96.60
2018-11-26T21:26:01.029Z,96.60
2018-11-26T21:28:29.261Z,96.60
2018-11-26T21:30:57.503Z,96.60
2018-11-26T21:33:25.756Z,96.70
2018-11-26T21:35:54.030Z,96.70
2018-11-26T21:38:22.307Z,96.60
2018-11-26T21:40:50.557Z,96.60
2018-11-26T21:43:18.820Z,96.60
2018-11-26T21:45:48.869Z,96.60
2018-11-26T21:48:17.085Z,96.60
2018-11-26T21:50:45.301Z,96.60
2018-11-26T21:53:13.533Z,96.60
2018-11-26T21:55:41.745Z,96.70
2018-11-26T21:58:09.961Z,96.80
2018-11-26T22:00:38.956Z,96.80
2018-11-26T22:03:08.214Z,97.00
2018-11-26T22:05:37.554Z,96.80
2018-11-26T22:08:06.233Z,96.80
2018-11-26T22:10:34.617Z,96.70
2018-11-26T22:13:02.878Z,96.60
2018-11-26T22:15:31.073Z,96.70
2018-11-26T22:17:59.311Z,96.70
2018-11-26T22:20:28.930Z,96.70
2018-11-26T22:22:57.212Z,96.60
2018-11-26T22:25:25.476Z,96.70
2018-11-26T22:27:54.283Z,96.70
2018-11-26T22:30:26.542Z,96.80
2018-11-26T22:32:54.790Z,96.80
2018-11-26T22:35:23.032Z,96.80
2018-11-26T22:37:51.302Z,96.80
2018-11-26T22:40:20.534Z,96.70
2018-11-26T22:42:48.878Z,96.70
2018-11-26T22:45:21.005Z,96.90
2018-11-26T22:47:59.638Z,96.60
2018-11-26T22:50:27.914Z,96.70
2018-11-26T22:52:56.191Z,96.70
2018-11-26T22:55:24.406Z,96.60
2018-11-26T22:57:52.775Z,96.50
2018-11-26T23:00:29.030Z,96.40
2018-11-26T23:03:00.292Z,96.40
2018-11-26T23:05:28.554Z,96.50
2018-11-26T23:07:56.770Z,96.50
2018-11-26T23:10:25.014Z,96.50
2018-11-26T23:12:53.251Z,96.70
2018-11-26T23:15:21.507Z,96.70
2018-11-26T23:17:49.873Z,96.80
2018-11-26T23:20:18.999Z,96.90
2018-11-26T23:22:47.232Z,97.00
2018-11-26T23:25:18.839Z,96.90
2018-11-26T23:27:47.066Z,96.90
2018-11-26T23:30:20.406Z,96.90
2018-11-26T23:32:51.950Z,96.90
2018-11-26T23:35:20.195Z,96.90
2018-11-26T23:37:48.400Z,97.10
2018-11-26T23:40:16.640Z,97.10
2018-11-26T23:42:44.893Z,97.10
2018-11-26T23:45:14.348Z,97.20
2018-11-26T23:47:42.563Z,97.20
2018-11-26T23:50:11.769Z,97.50
2018-11-26T23:52:40.335Z,97.20
2018-11-26T23:55:13.156Z,97.10
2018-11-26T23:57:41.439Z,97.00
